sensor_id;sensor_type;location;lat;lon;timestamp;temperature;humidity
22290;DHT22;11313;50.116;8.424;2022-07-22T04:11:57;24.80;55.40
22290;DHT22;11313;50.116;8.424;2022-07-22T04:18:01;24.80;55.30
22290;DHT22;11313;50.116;8.424;2022-07-22T04:20:27;24.80;55.40
22290;DHT22;11313;50.116;8.424;2022-07-22T04:22:53;24.80;55.50
22290;DHT22;11313;50.116;8.424;2022-07-22T04:25:19;24.80;55.40
22290;DHT22;11313;50.116;8.424;2022-07-22T04:27:44;24.80;55.40
22290;DHT22;11313;50.116;8.424;2022-07-22T04:30:10;24.80;55.30
22290;DHT22;11313;50.116;8.424;2022-07-22T04:32:36;24.80;55.40
22290;DHT22;11313;50.116;8.424;2022-07-22T04:35:02;24.80;55.30
22290;DHT22;11313;50.116;8.424;2022-07-22T04:37:28;24.80;55.30
22290;DHT22;11313;50.116;8.424;2022-07-22T04:39:54;24.80;55.30
22290;DHT22;11313;50.116;8.424;2022-07-22T04:42:20;24.80;55.30
22290;DHT22;11313;50.116;8.424;2022-07-22T04:44:46;24.80;55.30
22290;DHT22;11313;50.116;8.424;2022-07-22T04:47:12;24.80;55.30
22290;DHT22;11313;50.116;8.424;2022-07-22T04:49:37;24.80;55.30
22290;DHT22;11313;50.116;8.424;2022-07-22T04:52:03;24.90;55.30
22290;DHT22;11313;50.116;8.424;2022-07-22T04:54:29;24.80;55.20
22290;DHT22;11313;50.116;8.424;2022-07-22T04:56:54;24.90;55.30
22290;DHT22;11313;50.116;8.424;2022-07-22T04:59:20;24.90;55.30
22290;DHT22;11313;50.116;8.424;2022-07-22T05:01:45;24.80;55.20
22290;DHT22;11313;50.116;8.424;2022-07-22T05:04:11;24.90;55.10
22290;DHT22;11313;50.116;8.424;2022-07-22T05:06:37;24.90;55.10
22290;DHT22;11313;50.116;8.424;2022-07-22T05:09:02;25.00;55.10
22290;DHT22;11313;50.116;8.424;2022-07-22T05:11:28;25.00;55.00
22290;DHT22;11313;50.116;8.424;2022-07-22T05:13:54;24.90;54.90
22290;DHT22;11313;50.116;8.424;2022-07-22T05:16:19;25.00;55.00
22290;DHT22;11313;50.116;8.424;2022-07-22T05:18:45;24.90;54.90
22290;DHT22;11313;50.116;8.424;2022-07-22T05:21:10;24.90;54.80
22290;DHT22;11313;50.116;8.424;2022-07-22T05:23:36;25.00;54.80
22290;DHT22;11313;50.116;8.424;2022-07-22T05:28:31;25.00;54.80
22290;DHT22;11313;50.116;8.424;2022-07-22T05:30:56;25.00;54.80
22290;DHT22;11313;50.116;8.424;2022-07-22T05:33:22;24.90;54.80
22290;DHT22;11313;50.116;8.424;2022-07-22T05:35:47;25.00;54.80
22290;DHT22;11313;50.116;8.424;2022-07-22T05:38:13;24.90;54.80
22290;DHT22;11313;50.116;8.424;2022-07-22T05:40:39;25.00;54.90
22290;DHT22;11313;50.116;8.424;2022-07-22T05:43:04;24.90;54.80
22290;DHT22;11313;50.116;8.424;2022-07-22T05:45:30;25.00;54.80
22290;DHT22;11313;50.116;8.424;2022-07-22T05:47:56;24.90;54.80
22290;DHT22;11313;50.116;8.424;2022-07-22T05:50:22;24.90;54.80
22290;DHT22;11313;50.116;8.424;2022-07-22T05:52:48;24.90;54.80
22290;DHT22;11313;50.116;8.424;2022-07-22T05:55:13;25.00;54.80
22290;DHT22;11313;50.116;8.424;2022-07-22T05:57:39;24.90;54.80
22290;DHT22;11313;50.116;8.424;2022-07-22T06:00:05;24.90;54.70
22290;DHT22;11313;50.116;8.424;2022-07-22T06:02:31;24.90;55.40
22290;DHT22;11313;50.116;8.424;2022-07-22T06:04:57;24.90;54.70
22290;DHT22;11313;50.116;8.424;2022-07-22T06:07:22;24.90;54.70
22290;DHT22;11313;50.116;8.424;2022-07-22T06:09:48;24.90;54.70
22290;DHT22;11313;50.116;8.424;2022-07-22T06:12:14;24.90;54.70
22290;DHT22;11313;50.116;8.424;2022-07-22T06:14:39;25.00;54.70
22290;DHT22;11313;50.116;8.424;2022-07-22T06:17:05;24.90;54.70
22290;DHT22;11313;50.116;8.424;2022-07-22T06:19:31;24.90;54.70
22290;DHT22;11313;50.116;8.424;2022-07-22T06:21:57;25.00;54.70
22290;DHT22;11313;50.116;8.424;2022-07-22T06:24:23;25.00;54.70
22290;DHT22;11313;50.116;8.424;2022-07-22T06:26:48;25.00;54.70
22290;DHT22;11313;50.116;8.424;2022-07-22T06:29:15;25.00;54.70
22290;DHT22;11313;50.116;8.424;2022-07-22T06:31:40;25.00;54.60
22290;DHT22;11313;50.116;8.424;2022-07-22T06:34:06;25.00;54.60
22290;DHT22;11313;50.116;8.424;2022-07-22T06:36:32;25.00;54.60
22290;DHT22;11313;50.116;8.424;2022-07-22T06:38:58;25.00;54.60
22290;DHT22;11313;50.116;8.424;2022-07-22T06:41:25;25.00;54.50
22290;DHT22;11313;50.116;8.424;2022-07-22T06:43:50;25.00;54.50
22290;DHT22;11313;50.116;8.424;2022-07-22T06:46:16;25.00;54.50
22290;DHT22;11313;50.116;8.424;2022-07-22T06:48:41;25.00;54.50
22290;DHT22;11313;50.116;8.424;2022-07-22T06:51:07;25.00;54.50
22290;DHT22;11313;50.116;8.424;2022-07-22T06:53:33;25.00;54.50
22290;DHT22;11313;50.116;8.424;2022-07-22T06:55:59;25.10;54.50
22290;DHT22;11313;50.116;8.424;2022-07-22T06:58:25;25.10;54.50
22290;DHT22;11313;50.116;8.424;2022-07-22T07:00:50;25.00;54.40
22290;DHT22;11313;50.116;8.424;2022-07-22T07:03:16;25.00;54.40
22290;DHT22;11313;50.116;8.424;2022-07-22T07:05:41;25.00;54.40
22290;DHT22;11313;50.116;8.424;2022-07-22T07:08:07;25.00;54.40
22290;DHT22;11313;50.116;8.424;2022-07-22T07:10:32;25.00;54.40
22290;DHT22;11313;50.116;8.424;2022-07-22T07:12:58;25.00;54.40
22290;DHT22;11313;50.116;8.424;2022-07-22T07:15:25;25.00;54.30
22290;DHT22;11313;50.116;8.424;2022-07-22T07:17:51;25.10;54.40
22290;DHT22;11313;50.116;8.424;2022-07-22T07:20:17;25.10;54.40
22290;DHT22;11313;50.116;8.424;2022-07-22T07:22:43;25.10;54.40
22290;DHT22;11313;50.116;8.424;2022-07-22T07:25:09;25.00;54.30
22290;DHT22;11313;50.116;8.424;2022-07-22T07:27:35;25.10;54.40
22290;DHT22;11313;50.116;8.424;2022-07-22T07:30:02;25.10;54.30
22290;DHT22;11313;50.116;8.424;2022-07-22T07:32:28;25.10;54.40
22290;DHT22;11313;50.116;8.424;2022-07-22T07:34:53;25.10;54.30
22290;DHT22;11313;50.116;8.424;2022-07-22T07:37:19;25.10;54.30
22290;DHT22;11313;50.116;8.424;2022-07-22T07:39:44;25.10;54.30
22290;DHT22;11313;50.116;8.424;2022-07-22T07:42:10;25.10;54.30
22290;DHT22;11313;50.116;8.424;2022-07-22T07:44:35;25.10;54.30
22290;DHT22;11313;50.116;8.424;2022-07-22T07:47:01;25.10;54.20
22290;DHT22;11313;50.116;8.424;2022-07-22T07:49:26;25.10;54.20
22290;DHT22;11313;50.116;8.424;2022-07-22T07:51:52;25.10;54.30
22290;DHT22;11313;50.116;8.424;2022-07-22T07:54:19;25.10;54.20
22290;DHT22;11313;50.116;8.424;2022-07-22T07:56:44;25.10;54.20
22290;DHT22;11313;50.116;8.424;2022-07-22T07:59:10;25.10;54.20
22290;DHT22;11313;50.116;8.424;2022-07-22T08:01:36;25.10;54.20
22290;DHT22;11313;50.116;8.424;2022-07-22T08:04:01;25.10;54.20
22290;DHT22;11313;50.116;8.424;2022-07-22T08:06:27;25.10;54.20
22290;DHT22;11313;50.116;8.424;2022-07-22T08:08:53;25.10;54.20
22290;DHT22;11313;50.116;8.424;2022-07-22T08:11:18;25.10;54.20
22290;DHT22;11313;50.116;8.424;2022-07-22T08:13:44;25.10;54.20
22290;DHT22;11313;50.116;8.424;2022-07-22T08:16:10;25.10;54.10
22290;DHT22;11313;50.116;8.424;2022-07-22T08:18:35;25.10;54.10
22290;DHT22;11313;50.116;8.424;2022-07-22T08:21:01;25.10;54.20
22290;DHT22;11313;50.116;8.424;2022-07-22T08:23:27;25.10;54.10
22290;DHT22;11313;50.116;8.424;2022-07-22T08:25:52;25.10;54.10
22290;DHT22;11313;50.116;8.424;2022-07-22T08:28:18;25.20;54.20
22290;DHT22;11313;50.116;8.424;2022-07-22T08:30:44;25.10;54.10
22290;DHT22;11313;50.116;8.424;2022-07-22T08:33:09;25.10;54.10
22290;DHT22;11313;50.116;8.424;2022-07-22T08:35:35;25.10;54.10
22290;DHT22;11313;50.116;8.424;2022-07-22T08:38:00;25.10;54.10
22290;DHT22;11313;50.116;8.424;2022-07-22T08:40:26;25.10;54.10
22290;DHT22;11313;50.116;8.424;2022-07-22T08:42:52;25.10;54.10
22290;DHT22;11313;50.116;8.424;2022-07-22T08:45:19;25.10;54.10
22290;DHT22;11313;50.116;8.424;2022-07-22T08:47:49;25.10;54.10
22290;DHT22;11313;50.116;8.424;2022-07-22T08:50:15;25.10;54.00
22290;DHT22;11313;50.116;8.424;2022-07-22T08:52:41;25.10;54.00
22290;DHT22;11313;50.116;8.424;2022-07-22T08:55:07;25.10;54.10
22290;DHT22;11313;50.116;8.424;2022-07-22T08:57:33;25.10;54.00
22290;DHT22;11313;50.116;8.424;2022-07-22T09:00:00;25.10;54.00
22290;DHT22;11313;50.116;8.424;2022-07-22T09:02:27;25.10;54.00
22290;DHT22;11313;50.116;8.424;2022-07-22T09:04:59;25.10;54.00
22290;DHT22;11313;50.116;8.424;2022-07-22T09:09:53;25.20;54.10
22290;DHT22;11313;50.116;8.424;2022-07-22T09:12:19;25.20;54.10
22290;DHT22;11313;50.116;8.424;2022-07-22T09:14:49;25.20;54.10
22290;DHT22;11313;50.116;8.424;2022-07-22T09:17:47;25.10;53.90
22290;DHT22;11313;50.116;8.424;2022-07-22T09:20:18;25.20;54.00
22290;DHT22;11313;50.116;8.424;2022-07-22T09:22:46;25.10;53.90
22290;DHT22;11313;50.116;8.424;2022-07-22T09:25:22;25.20;54.00
22290;DHT22;11313;50.116;8.424;2022-07-22T09:27:49;25.20;54.00
22290;DHT22;11313;50.116;8.424;2022-07-22T09:30:21;25.20;54.00
22290;DHT22;11313;50.116;8.424;2022-07-22T09:32:47;25.20;54.00
22290;DHT22;11313;50.116;8.424;2022-07-22T09:35:14;25.20;54.00
22290;DHT22;11313;50.116;8.424;2022-07-22T09:37:54;25.20;53.90
22290;DHT22;11313;50.116;8.424;2022-07-22T09:40:22;25.20;54.00
22290;DHT22;11313;50.116;8.424;2022-07-22T09:42:59;25.20;53.90
22290;DHT22;11313;50.116;8.424;2022-07-22T09:45:27;25.20;53.90
22290;DHT22;11313;50.116;8.424;2022-07-22T09:47:54;25.20;53.90
22290;DHT22;11313;50.116;8.424;2022-07-22T09:50:25;25.20;53.90
22290;DHT22;11313;50.116;8.424;2022-07-22T09:52:52;25.20;53.90
22290;DHT22;11313;50.116;8.424;2022-07-22T09:55:20;25.20;53.90
22290;DHT22;11313;50.116;8.424;2022-07-22T09:57:46;25.20;53.90
22290;DHT22;11313;50.116;8.424;2022-07-22T10:00:13;25.20;53.90
22290;DHT22;11313;50.116;8.424;2022-07-22T10:02:45;25.20;53.90
22290;DHT22;11313;50.116;8.424;2022-07-22T10:05:12;25.20;53.90
22290;DHT22;11313;50.116;8.424;2022-07-22T10:07:40;25.30;53.90
22290;DHT22;11313;50.116;8.424;2022-07-22T10:10:07;25.20;53.90
22290;DHT22;11313;50.116;8.424;2022-07-22T10:12:36;25.20;53.80
22290;DHT22;11313;50.116;8.424;2022-07-22T10:15:03;25.20;53.80
22290;DHT22;11313;50.116;8.424;2022-07-22T10:17:29;25.20;53.90
22290;DHT22;11313;50.116;8.424;2022-07-22T10:19:55;25.30;53.90
22290;DHT22;11313;50.116;8.424;2022-07-22T10:25:09;25.20;53.70
22290;DHT22;11313;50.116;8.424;2022-07-22T10:30:35;25.20;53.70
22290;DHT22;11313;50.116;8.424;2022-07-22T10:33:06;25.20;53.60
22290;DHT22;11313;50.116;8.424;2022-07-22T10:35:35;25.30;53.70
22290;DHT22;11313;50.116;8.424;2022-07-22T10:38:04;25.20;53.60
22290;DHT22;11313;50.116;8.424;2022-07-22T10:40:33;25.30;53.70
22290;DHT22;11313;50.116;8.424;2022-07-22T10:43:10;25.30;53.70
22290;DHT22;11313;50.116;8.424;2022-07-22T10:48:09;25.30;53.80
22290;DHT22;11313;50.116;8.424;2022-07-22T10:53:02;25.30;53.80
22290;DHT22;11313;50.116;8.424;2022-07-22T10:55:28;25.30;53.80
22290;DHT22;11313;50.116;8.424;2022-07-22T10:57:54;25.30;53.80
22290;DHT22;11313;50.116;8.424;2022-07-22T11:00:20;25.30;53.80
22290;DHT22;11313;50.116;8.424;2022-07-22T11:02:45;25.30;53.80
22290;DHT22;11313;50.116;8.424;2022-07-22T11:05:11;25.30;53.80
22290;DHT22;11313;50.116;8.424;2022-07-22T11:07:44;25.20;53.70
22290;DHT22;11313;50.116;8.424;2022-07-22T11:10:10;25.30;53.80
22290;DHT22;11313;50.116;8.424;2022-07-22T11:12:37;25.30;53.80
22290;DHT22;11313;50.116;8.424;2022-07-22T11:15:04;25.30;53.80
22290;DHT22;11313;50.116;8.424;2022-07-22T11:17:31;25.30;54.40
22290;DHT22;11313;50.116;8.424;2022-07-22T11:20:03;25.30;53.80
22290;DHT22;11313;50.116;8.424;2022-07-22T11:22:30;25.30;53.80
22290;DHT22;11313;50.116;8.424;2022-07-22T11:24:56;25.20;54.30
22290;DHT22;11313;50.116;8.424;2022-07-22T11:27:22;25.30;53.80
22290;DHT22;11313;50.116;8.424;2022-07-22T11:29:50;25.30;53.80
22290;DHT22;11313;50.116;8.424;2022-07-22T11:32:16;25.30;53.80
22290;DHT22;11313;50.116;8.424;2022-07-22T11:34:44;25.20;53.70
22290;DHT22;11313;50.116;8.424;2022-07-22T11:37:13;25.30;53.80
22290;DHT22;11313;50.116;8.424;2022-07-22T11:39:39;25.20;53.80
22290;DHT22;11313;50.116;8.424;2022-07-22T11:42:05;25.20;53.80
22290;DHT22;11313;50.116;8.424;2022-07-22T11:44:33;25.20;53.80
22290;DHT22;11313;50.116;8.424;2022-07-22T11:46:59;25.20;53.80
22290;DHT22;11313;50.116;8.424;2022-07-22T11:49:30;25.20;53.80
22290;DHT22;11313;50.116;8.424;2022-07-22T11:51:56;25.20;53.80
22290;DHT22;11313;50.116;8.424;2022-07-22T11:54:22;25.20;53.80
22290;DHT22;11313;50.116;8.424;2022-07-22T11:56:48;25.20;53.90
22290;DHT22;11313;50.116;8.424;2022-07-22T11:59:15;25.20;53.90
22290;DHT22;11313;50.116;8.424;2022-07-22T12:01:43;25.20;53.90
22290;DHT22;11313;50.116;8.424;2022-07-22T12:04:29;25.10;53.80
22290;DHT22;11313;50.116;8.424;2022-07-22T12:06:58;25.10;53.80
22290;DHT22;11313;50.116;8.424;2022-07-22T12:09:26;25.30;54.00
22290;DHT22;11313;50.116;8.424;2022-07-22T12:11:56;25.10;53.90
22290;DHT22;11313;50.116;8.424;2022-07-22T12:14:25;25.10;53.90
22290;DHT22;11313;50.116;8.424;2022-07-22T12:16:58;25.10;53.90
22290;DHT22;11313;50.116;8.424;2022-07-22T12:19:25;25.10;54.00
22290;DHT22;11313;50.116;8.424;2022-07-22T12:22:05;25.10;54.00
22290;DHT22;11313;50.116;8.424;2022-07-22T12:24:37;25.10;54.00
22290;DHT22;11313;50.116;8.424;2022-07-22T12:27:14;25.10;54.10
22290;DHT22;11313;50.116;8.424;2022-07-22T12:34:59;25.10;54.10
22290;DHT22;11313;50.116;8.424;2022-07-22T12:37:30;25.00;54.10
22290;DHT22;11313;50.116;8.424;2022-07-22T12:40:06;25.00;54.10
22290;DHT22;11313;50.116;8.424;2022-07-22T12:42:38;25.00;54.10
22290;DHT22;11313;50.116;8.424;2022-07-22T12:55:32;25.00;54.20
22290;DHT22;11313;50.116;8.424;2022-07-22T12:57:58;25.00;54.20
22290;DHT22;11313;50.116;8.424;2022-07-22T13:00:26;25.00;54.30
22290;DHT22;11313;50.116;8.424;2022-07-22T13:02:53;24.90;54.20
22290;DHT22;11313;50.116;8.424;2022-07-22T13:05:19;24.90;54.30
22290;DHT22;11313;50.116;8.424;2022-07-22T13:07:45;24.90;54.30
22290;DHT22;11313;50.116;8.424;2022-07-22T13:10:12;24.90;54.30
22290;DHT22;11313;50.116;8.424;2022-07-22T13:12:38;24.90;54.30
22290;DHT22;11313;50.116;8.424;2022-07-22T13:15:04;24.90;54.30
22290;DHT22;11313;50.116;8.424;2022-07-22T13:17:30;24.90;54.40
22290;DHT22;11313;50.116;8.424;2022-07-22T13:19:55;24.90;54.40
22290;DHT22;11313;50.116;8.424;2022-07-22T13:22:21;24.90;54.40
22290;DHT22;11313;50.116;8.424;2022-07-22T13:24:46;24.90;54.40
22290;DHT22;11313;50.116;8.424;2022-07-22T13:27:12;24.90;54.40
22290;DHT22;11313;50.116;8.424;2022-07-22T13:29:38;24.90;54.40
22290;DHT22;11313;50.116;8.424;2022-07-22T13:32:04;24.90;54.40
22290;DHT22;11313;50.116;8.424;2022-07-22T13:34:29;24.90;54.50
22290;DHT22;11313;50.116;8.424;2022-07-22T13:36:55;24.90;54.50
22290;DHT22;11313;50.116;8.424;2022-07-22T13:39:22;24.90;55.10
22290;DHT22;11313;50.116;8.424;2022-07-22T13:41:48;24.90;54.50
22290;DHT22;11313;50.116;8.424;2022-07-22T13:44:13;24.80;54.40
22290;DHT22;11313;50.116;8.424;2022-07-22T13:46:39;24.90;54.50
22290;DHT22;11313;50.116;8.424;2022-07-22T13:49:04;24.90;54.50
22290;DHT22;11313;50.116;8.424;2022-07-22T13:51:30;24.90;54.50
22290;DHT22;11313;50.116;8.424;2022-07-22T13:53:56;24.90;54.50
22290;DHT22;11313;50.116;8.424;2022-07-22T13:56:22;24.90;54.60
22290;DHT22;11313;50.116;8.424;2022-07-22T13:58:47;24.90;54.60
22290;DHT22;11313;50.116;8.424;2022-07-22T14:01:13;24.80;54.50
22290;DHT22;11313;50.116;8.424;2022-07-22T14:03:39;24.80;54.50
22290;DHT22;11313;50.116;8.424;2022-07-22T14:06:05;24.80;54.50
22290;DHT22;11313;50.116;8.424;2022-07-22T14:08:31;24.80;54.60
22290;DHT22;11313;50.116;8.424;2022-07-22T14:10:57;24.80;54.60
22290;DHT22;11313;50.116;8.424;2022-07-22T14:13:22;24.80;54.60
22290;DHT22;11313;50.116;8.424;2022-07-22T14:15:48;24.80;54.60
22290;DHT22;11313;50.116;8.424;2022-07-22T14:18:13;24.80;54.60
22290;DHT22;11313;50.116;8.424;2022-07-22T14:20:39;24.80;54.60
22290;DHT22;11313;50.116;8.424;2022-07-22T14:23:06;24.80;54.60
22290;DHT22;11313;50.116;8.424;2022-07-22T14:25:31;24.80;54.60
22290;DHT22;11313;50.116;8.424;2022-07-22T14:27:57;24.80;54.60
22290;DHT22;11313;50.116;8.424;2022-07-22T14:30:23;24.80;54.60
22290;DHT22;11313;50.116;8.424;2022-07-22T14:32:49;24.80;54.60
22290;DHT22;11313;50.116;8.424;2022-07-22T14:35:14;24.80;54.70
22290;DHT22;11313;50.116;8.424;2022-07-22T14:37:40;24.80;54.70
22290;DHT22;11313;50.116;8.424;2022-07-22T14:40:06;24.80;54.70
22290;DHT22;11313;50.116;8.424;2022-07-22T14:42:32;24.80;54.70
22290;DHT22;11313;50.116;8.424;2022-07-22T14:44:57;24.80;54.70
22290;DHT22;11313;50.116;8.424;2022-07-22T14:47:23;24.80;54.70
22290;DHT22;11313;50.116;8.424;2022-07-22T14:49:48;24.80;54.80
22290;DHT22;11313;50.116;8.424;2022-07-22T14:52:14;24.80;54.80
22290;DHT22;11313;50.116;8.424;2022-07-22T14:54:39;24.80;54.90
22290;DHT22;11313;50.116;8.424;2022-07-22T14:57:05;24.80;54.90
22290;DHT22;11313;50.116;8.424;2022-07-22T14:59:30;24.80;55.60
22290;DHT22;11313;50.116;8.424;2022-07-22T15:01:56;24.80;54.90
22290;DHT22;11313;50.116;8.424;2022-07-22T15:04:21;24.80;54.90
22290;DHT22;11313;50.116;8.424;2022-07-22T15:06:47;24.80;55.00
22290;DHT22;11313;50.116;8.424;2022-07-22T15:09:12;24.80;55.60
22290;DHT22;11313;50.116;8.424;2022-07-22T15:11:38;24.70;54.90
22290;DHT22;11313;50.116;8.424;2022-07-22T15:14:04;24.70;54.90
22290;DHT22;11313;50.116;8.424;2022-07-22T15:16:29;24.80;55.00
22290;DHT22;11313;50.116;8.424;2022-07-22T15:18:55;24.70;54.90
22290;DHT22;11313;50.116;8.424;2022-07-22T15:21:20;24.70;54.90
22290;DHT22;11313;50.116;8.424;2022-07-22T15:23:47;24.70;54.90
22290;DHT22;11313;50.116;8.424;2022-07-22T15:26:12;24.70;54.90
22290;DHT22;11313;50.116;8.424;2022-07-22T15:28:38;24.70;54.90
22290;DHT22;11313;50.116;8.424;2022-07-22T15:31:04;24.80;55.00
22290;DHT22;11313;50.116;8.424;2022-07-22T15:33:31;24.70;54.90
22290;DHT22;11313;50.116;8.424;2022-07-22T15:35:56;24.70;55.00
22290;DHT22;11313;50.116;8.424;2022-07-22T15:38:22;24.70;55.00
22290;DHT22;11313;50.116;8.424;2022-07-22T15:40:47;24.70;55.00
22290;DHT22;11313;50.116;8.424;2022-07-22T15:43:13;24.70;55.00
22290;DHT22;11313;50.116;8.424;2022-07-22T15:45:39;24.70;55.00
22290;DHT22;11313;50.116;8.424;2022-07-22T15:48:04;24.70;55.00
22290;DHT22;11313;50.116;8.424;2022-07-22T15:50:31;24.70;55.00
22290;DHT22;11313;50.116;8.424;2022-07-22T15:52:56;24.70;55.00
22290;DHT22;11313;50.116;8.424;2022-07-22T15:55:23;24.70;55.00
22290;DHT22;11313;50.116;8.424;2022-07-22T15:57:49;24.70;55.70
22290;DHT22;11313;50.116;8.424;2022-07-22T16:00:34;24.70;55.00
22290;DHT22;11313;50.116;8.424;2022-07-22T16:02:59;24.70;55.00
22290;DHT22;11313;50.116;8.424;2022-07-22T16:05:26;24.70;55.00
22290;DHT22;11313;50.116;8.424;2022-07-22T16:07:53;24.70;55.00
22290;DHT22;11313;50.116;8.424;2022-07-22T16:10:18;24.70;55.10
22290;DHT22;11313;50.116;8.424;2022-07-22T16:12:44;24.70;55.00
22290;DHT22;11313;50.116;8.424;2022-07-22T16:15:10;24.70;55.10
22290;DHT22;11313;50.116;8.424;2022-07-22T16:17:35;24.70;55.00
22290;DHT22;11313;50.116;8.424;2022-07-22T16:20:01;24.70;55.10
22290;DHT22;11313;50.116;8.424;2022-07-22T16:22:27;24.70;55.10
22290;DHT22;11313;50.116;8.424;2022-07-22T16:24:52;24.70;55.10
22290;DHT22;11313;50.116;8.424;2022-07-22T16:27:18;24.70;55.10
22290;DHT22;11313;50.116;8.424;2022-07-22T16:29:43;24.70;55.10
22290;DHT22;11313;50.116;8.424;2022-07-22T16:32:09;24.70;55.10
22290;DHT22;11313;50.116;8.424;2022-07-22T16:34:34;24.70;55.10
22290;DHT22;11313;50.116;8.424;2022-07-22T16:37:01;24.70;55.10
22290;DHT22;11313;50.116;8.424;2022-07-22T16:39:27;24.70;55.10
22290;DHT22;11313;50.116;8.424;2022-07-22T16:41:52;24.70;55.10
22290;DHT22;11313;50.116;8.424;2022-07-22T16:44:18;24.70;55.10
22290;DHT22;11313;50.116;8.424;2022-07-22T16:46:43;24.70;55.10
22290;DHT22;11313;50.116;8.424;2022-07-22T16:49:10;24.70;55.10
22290;DHT22;11313;50.116;8.424;2022-07-22T16:51:36;24.70;55.20
22290;DHT22;11313;50.116;8.424;2022-07-22T16:54:02;24.70;55.30
22290;DHT22;11313;50.116;8.424;2022-07-22T16:56:28;24.70;55.20
22290;DHT22;11313;50.116;8.424;2022-07-22T16:58:54;24.70;55.20
22290;DHT22;11313;50.116;8.424;2022-07-22T17:01:19;24.70;55.20
22290;DHT22;11313;50.116;8.424;2022-07-22T17:03:45;24.70;55.20
22290;DHT22;11313;50.116;8.424;2022-07-22T17:06:10;24.70;55.20
22290;DHT22;11313;50.116;8.424;2022-07-22T17:08:36;24.70;55.20
22290;DHT22;11313;50.116;8.424;2022-07-22T17:11:01;24.70;55.20
22290;DHT22;11313;50.116;8.424;2022-07-22T17:13:27;24.70;55.20
22290;DHT22;11313;50.116;8.424;2022-07-22T17:15:55;24.60;55.20
22290;DHT22;11313;50.116;8.424;2022-07-22T17:18:21;24.70;55.20
22290;DHT22;11313;50.116;8.424;2022-07-22T17:20:46;24.70;55.20
22290;DHT22;11313;50.116;8.424;2022-07-22T17:23:12;24.70;55.20
22290;DHT22;11313;50.116;8.424;2022-07-22T17:25:37;24.70;55.20
22290;DHT22;11313;50.116;8.424;2022-07-22T17:28:03;24.70;55.20
22290;DHT22;11313;50.116;8.424;2022-07-22T17:30:29;24.70;55.20
22290;DHT22;11313;50.116;8.424;2022-07-22T17:32:54;24.70;55.20
22290;DHT22;11313;50.116;8.424;2022-07-22T17:35:20;24.70;55.20
22290;DHT22;11313;50.116;8.424;2022-07-22T17:37:46;24.70;55.20
22290;DHT22;11313;50.116;8.424;2022-07-22T17:40:12;24.70;55.30
22290;DHT22;11313;50.116;8.424;2022-07-22T17:42:37;24.70;55.30
22290;DHT22;11313;50.116;8.424;2022-07-22T17:45:04;24.70;55.20
22290;DHT22;11313;50.116;8.424;2022-07-22T17:47:31;24.70;55.30
22290;DHT22;11313;50.116;8.424;2022-07-22T17:49:57;24.60;55.20
22290;DHT22;11313;50.116;8.424;2022-07-22T17:52:23;24.60;55.20
22290;DHT22;11313;50.116;8.424;2022-07-22T17:54:48;24.70;55.30
22290;DHT22;11313;50.116;8.424;2022-07-22T17:57:14;24.60;55.20
22290;DHT22;11313;50.116;8.424;2022-07-22T17:59:39;24.70;55.30
22290;DHT22;11313;50.116;8.424;2022-07-22T18:02:05;24.70;55.30
22290;DHT22;11313;50.116;8.424;2022-07-22T18:04:31;24.70;55.30
22290;DHT22;11313;50.116;8.424;2022-07-22T18:06:56;24.70;55.30
22290;DHT22;11313;50.116;8.424;2022-07-22T18:09:24;24.60;55.20
22290;DHT22;11313;50.116;8.424;2022-07-22T18:11:49;24.70;55.30
22290;DHT22;11313;50.116;8.424;2022-07-22T18:14:15;24.60;55.20
22290;DHT22;11313;50.116;8.424;2022-07-22T18:16:42;24.60;55.20
22290;DHT22;11313;50.116;8.424;2022-07-22T18:19:08;24.60;55.20
22290;DHT22;11313;50.116;8.424;2022-07-22T18:21:34;24.70;55.30
22290;DHT22;11313;50.116;8.424;2022-07-22T18:23:59;24.60;55.20
22290;DHT22;11313;50.116;8.424;2022-07-22T18:26:25;24.60;55.20
22290;DHT22;11313;50.116;8.424;2022-07-22T18:28:51;24.70;55.30
22290;DHT22;11313;50.116;8.424;2022-07-22T18:31:17;24.60;55.30
22290;DHT22;11313;50.116;8.424;2022-07-22T18:33:43;24.70;55.30
22290;DHT22;11313;50.116;8.424;2022-07-22T18:36:08;24.60;55.30
22290;DHT22;11313;50.116;8.424;2022-07-22T18:38:35;24.60;55.30
22290;DHT22;11313;50.116;8.424;2022-07-22T18:41:01;24.60;55.30
22290;DHT22;11313;50.116;8.424;2022-07-22T18:43:27;24.60;55.30
22290;DHT22;11313;50.116;8.424;2022-07-22T18:45:53;24.60;55.30
22290;DHT22;11313;50.116;8.424;2022-07-22T18:48:18;24.60;55.30
22290;DHT22;11313;50.116;8.424;2022-07-22T18:50:44;24.60;56.00
22290;DHT22;11313;50.116;8.424;2022-07-22T18:53:09;24.60;55.30
22290;DHT22;11313;50.116;8.424;2022-07-22T18:55:35;24.60;55.30
22290;DHT22;11313;50.116;8.424;2022-07-22T18:58:01;24.60;55.30
22290;DHT22;11313;50.116;8.424;2022-07-22T19:00:26;24.60;55.30
22290;DHT22;11313;50.116;8.424;2022-07-22T19:02:52;24.60;55.30
22290;DHT22;11313;50.116;8.424;2022-07-22T19:05:18;24.60;55.40
22290;DHT22;11313;50.116;8.424;2022-07-22T19:07:43;24.60;55.30
22290;DHT22;11313;50.116;8.424;2022-07-22T19:10:09;24.50;55.30
22290;DHT22;11313;50.116;8.424;2022-07-22T19:12:35;24.60;55.30
22290;DHT22;11313;50.116;8.424;2022-07-22T19:15:04;24.60;55.30
22290;DHT22;11313;50.116;8.424;2022-07-22T19:17:30;24.60;55.30
22290;DHT22;11313;50.116;8.424;2022-07-22T19:19:56;24.60;55.30
22290;DHT22;11313;50.116;8.424;2022-07-22T19:22:21;24.60;55.30
22290;DHT22;11313;50.116;8.424;2022-07-22T19:24:48;24.70;55.40
22290;DHT22;11313;50.116;8.424;2022-07-22T19:27:13;24.60;55.30
22290;DHT22;11313;50.116;8.424;2022-07-22T19:29:39;24.60;55.30
22290;DHT22;11313;50.116;8.424;2022-07-22T19:32:05;24.60;55.30
22290;DHT22;11313;50.116;8.424;2022-07-22T19:34:30;24.60;55.30
22290;DHT22;11313;50.116;8.424;2022-07-22T19:36:56;24.50;55.30
22290;DHT22;11313;50.116;8.424;2022-07-22T19:39:22;24.60;55.30
22290;DHT22;11313;50.116;8.424;2022-07-22T19:41:47;24.60;55.30
22290;DHT22;11313;50.116;8.424;2022-07-22T19:44:13;24.60;55.30
22290;DHT22;11313;50.116;8.424;2022-07-22T19:46:38;24.50;55.30
22290;DHT22;11313;50.116;8.424;2022-07-22T19:49:04;24.60;55.30
22290;DHT22;11313;50.116;8.424;2022-07-22T19:51:30;24.50;55.30
22290;DHT22;11313;50.116;8.424;2022-07-22T19:53:55;24.50;55.30
22290;DHT22;11313;50.116;8.424;2022-07-22T19:56:21;24.60;55.30
22290;DHT22;11313;50.116;8.424;2022-07-22T19:58:46;24.60;55.30
22290;DHT22;11313;50.116;8.424;2022-07-22T20:01:13;24.50;55.30
22290;DHT22;11313;50.116;8.424;2022-07-22T20:03:38;24.60;55.40
22290;DHT22;11313;50.116;8.424;2022-07-22T20:06:06;24.60;55.40
22290;DHT22;11313;50.116;8.424;2022-07-22T20:08:32;24.50;55.30
22290;DHT22;11313;50.116;8.424;2022-07-22T20:10:58;24.60;55.40